Date,TemperatureHighF,TemperatureAvgF,TemperatureLowF,DewpointHighF,DewpointAvgF,DewpointLowF,HumidityHigh,HumidityAvg,HumidityLow,PressureMaxIn,PressureMinIn,WindSpeedMaxMPH,WindSpeedAvgMPH,GustSpeedMaxMPH,PrecipitationSumIn
2013-5-1,86.9,82.6,79.7,78.0,76.9,76.0,89,83,73,29.91,29.78,14,6,24,0.00
2013-5-2,87.2,82.6,79.5,78.0,76.8,76.0,90,83,70,29.89,29.74,16,6,19,0.00
2013-5-3,89.0,83.1,79.3,78.0,76.9,76.0,91,82,68,29.88,29.75,10,4,13,0.00
2013-5-4,89.9,83.8,79.0,79.0,77.5,75.0,94,82,67,29.84,29.72,11,2,18,0.00
2013-5-5,91.1,83.7,78.6,79.0,77.5,76.0,93,82,66,29.89,29.75,11,3,15,0.00
2013-5-6,86.1,81.4,78.6,79.0,77.2,75.0,96,87,77,29.96,29.84,6,2,12,1.34
2013-5-7,85.9,81.2,76.8,79.0,76.5,74.0,96,86,75,29.98,29.87,13,4,19,0.06
2013-5-8,87.3,83.1,80.1,78.0,76.1,74.0,86,79,72,30.02,29.89,22,8,25,0.00
2013-5-9,87.0,83.3,81.0,77.0,76.1,75.0,84,79,72,30.01,29.89,18,9,25,0.00
2013-5-10,87.0,82.9,80.6,77.0,75.6,74.0,85,79,67,30.00,29.85,16,8,21,0.00
2013-5-11,87.9,83.1,80.1,76.0,75.1,74.0,84,77,64,29.96,29.83,14,6,21,0.00
2013-5-12,87.6,83.1,79.7,77.0,75.4,74.0,85,78,69,29.92,29.80,16,6,22,0.00
2013-5-13,87.6,83.5,80.7,77.0,75.6,74.0,83,77,69,29.93,29.83,19,8,23,0.00
2013-5-14,88.1,83.8,81.2,77.0,75.9,75.0,84,77,66,29.94,29.80,17,8,22,0.00
2013-5-15,87.8,83.7,81.0,78.0,76.9,76.0,87,80,70,29.92,29.80,18,8,23,0.00
2013-5-16,87.5,83.2,80.5,77.0,76.0,75.0,87,79,69,29.91,29.83,15,8,23,0.00
2013-5-17,87.3,83.4,80.7,77.0,75.8,74.0,83,78,71,29.94,29.86,21,8,26,0.00
2013-5-18,87.6,83.3,81.0,77.0,76.1,75.0,86,79,70,29.97,29.84,19,8,24,0.00
2013-5-19,87.1,83.5,80.8,78.0,76.6,75.0,85,80,70,29.92,29.81,17,8,26,0.00
2013-5-20,87.4,83.5,81.0,78.0,77.1,76.0,86,81,72,29.91,29.80,17,8,24,0.00
2013-5-21,84.2,81.6,75.1,78.0,76.8,73.0,96,85,78,29.89,29.77,17,7,21,0.27
2013-5-22,87.0,83.2,80.9,77.0,75.5,73.0,84,78,69,29.90,29.80,18,8,23,0.00
2013-5-23,86.6,82.9,80.7,79.0,76.7,75.0,90,81,74,29.93,29.83,14,7,25,0.03
2013-5-24,87.6,83.4,80.8,77.0,75.8,75.0,84,78,66,29.94,29.84,16,7,22,0.00
2013-5-25,87.3,83.4,80.3,77.0,76.4,75.0,86,79,69,29.94,29.83,19,7,22,0.00
2013-5-26,87.6,83.8,81.2,79.0,77.1,76.0,87,80,72,29.94,29.85,15,8,23,0.00
2013-5-27,89.0,83.9,81.0,79.0,77.3,74.0,86,80,70,29.92,29.81,15,7,23,0.00
2013-5-28,87.9,84.0,81.2,79.0,76.9,75.0,84,79,71,29.91,29.81,17,8,24,0.00
2013-5-29,88.2,83.7,80.2,80.0,77.1,75.0,89,80,72,29.91,29.82,16,7,24,0.03
2013-5-30,88.1,83.6,79.2,79.0,77.1,76.0,92,81,70,29.95,29.81,21,8,29,0.10
2013-5-31,88.1,84.1,81.8,78.0,76.7,75.0,84,78,70,29.93,29.83,17,9,26,0.00